Time;durP1;ratioP1;P1;durP2;ratioP2;P2;SDS_P1;SDS_P2;PMS_P1;PMS_P2;Temp;Humidity;BMP_temperature;BMP_pressure;BME280_temperature;BME280_humidity;BME280_pressure;Samples;Min_cycle;Max_cycle;Signal;HPM_P1;HPM_P2
2021/03/23 00:01:07;;;;;;;11.00;8.50;;;8.80;99.90;;;;;;4135360;28;20366;-69
2021/03/23 00:03:13;;;;;;;10.70;8.25;;;8.80;99.90;;;;;;4132955;28;20081;-68
2021/03/23 00:05:14;;;;;;;11.82;8.30;;;8.80;99.90;;;;;;4144753;28;20092;-68
2021/03/23 00:07:15;;;;;;;10.15;8.07;;;8.80;99.90;;;;;;4131888;28;20038;-68
2021/03/23 00:09:16;;;;;;;10.30;8.02;;;8.80;99.90;;;;;;4136795;28;20042;-68
2021/03/23 00:11:33;;;;;;;10.10;7.47;;;8.80;99.90;;;;;;4138221;28;20034;-69
2021/03/23 00:13:36;;;;;;;11.85;7.90;;;8.80;99.90;;;;;;4145534;28;20037;-69
2021/03/23 00:15:37;;;;;;;9.65;7.20;;;8.80;99.90;;;;;;4145151;28;20040;-69
2021/03/23 00:17:38;;;;;;;9.50;7.50;;;8.80;99.90;;;;;;4145850;28;20066;-69
2021/03/23 00:19:39;;;;;;;12.15;9.05;;;8.80;99.90;;;;;;4145892;28;20045;-69
2021/03/23 00:21:40;;;;;;;13.20;9.23;;;8.80;99.90;;;;;;4145878;28;20382;-69
2021/03/23 00:23:41;;;;;;;12.32;8.90;;;8.80;99.90;;;;;;4136302;28;20102;-68
2021/03/23 00:25:42;;;;;;;13.20;9.02;;;8.70;99.90;;;;;;4121853;28;20516;-68
2021/03/23 00:27:43;;;;;;;14.00;9.27;;;8.70;99.90;;;;;;4143461;28;20053;-68
2021/03/23 00:29:46;;;;;;;12.20;8.52;;;8.70;99.90;;;;;;4137299;28;20437;-69
2021/03/23 00:31:46;;;;;;;14.68;8.82;;;8.70;99.90;;;;;;4129414;28;20042;-68
2021/03/23 00:33:47;;;;;;;13.52;9.23;;;8.60;99.90;;;;;;4130781;28;20402;-69
2021/03/23 00:35:52;;;;;;;11.57;8.25;;;8.60;99.90;;;;;;4145543;28;20038;-68
2021/03/23 00:37:56;;;;;;;13.32;8.70;;;8.60;99.90;;;;;;4145313;28;20645;-69
2021/03/23 00:39:58;;;;;;;14.30;9.18;;;8.50;99.90;;;;;;4145630;28;20049;-68
2021/03/23 00:41:59;;;;;;;10.45;8.05;;;8.60;99.90;;;;;;4128160;28;20031;-68
2021/03/23 00:43:59;;;;;;;11.52;7.82;;;8.50;99.90;;;;;;4139821;28;20046;-68
2021/03/23 00:46:00;;;;;;;11.18;7.88;;;8.50;99.90;;;;;;4141230;28;20037;-68
2021/03/23 00:48:01;;;;;;;12.13;8.25;;;8.50;99.90;;;;;;4141136;28;20034;-68
2021/03/23 00:50:06;;;;;;;13.27;8.13;;;8.50;99.90;;;;;;4125383;28;20036;-68
2021/03/23 00:52:07;;;;;;;13.40;8.60;;;8.50;99.90;;;;;;4144811;28;20069;-69
2021/03/23 00:54:08;;;;;;;11.48;8.35;;;8.50;99.90;;;;;;4132096;28;20118;-68
2021/03/23 00:56:08;;;;;;;12.52;8.30;;;8.50;99.90;;;;;;4124951;28;20042;-68
2021/03/23 00:58:09;;;;;;;11.07;8.13;;;8.40;99.90;;;;;;4139797;28;20504;-68
2021/03/23 01:00:14;;;;;;;11.35;7.70;;;8.40;99.90;;;;;;4133807;28;20493;-68
2021/03/23 01:02:14;;;;;;;11.20;7.47;;;8.40;99.90;;;;;;4144913;28;20056;-69
2021/03/23 01:04:15;;;;;;;12.30;8.30;;;8.40;99.90;;;;;;4138700;28;20065;-69
2021/03/23 01:06:16;;;;;;;10.32;7.78;;;8.40;99.90;;;;;;4134608;28;20501;-69
2021/03/23 01:08:17;;;;;;;13.80;8.30;;;8.40;99.90;;;;;;4145190;28;20034;-68
2021/03/23 01:10:19;;;;;;;11.95;7.30;;;8.40;99.90;;;;;;4104366;28;20123;-69
2021/03/23 01:12:20;;;;;;;;;;;8.40;99.90;;;;;;4116676;28;20031;-69
2021/03/23 01:14:21;;;;;;;11.02;7.72;;;8.40;99.90;;;;;;4137660;28;19917;-69
2021/03/23 01:16:22;;;;;;;11.93;8.10;;;8.40;99.90;;;;;;4144744;28;20046;-69
2021/03/23 01:18:22;;;;;;;11.85;7.85;;;8.30;99.90;;;;;;4144940;28;20041;-69
2021/03/23 01:20:25;;;;;;;16.45;8.85;;;8.30;99.90;;;;;;4114760;28;20407;-68
2021/03/23 01:22:25;;;;;;;12.60;8.50;;;8.30;99.90;;;;;;4112147;28;20593;-68
2021/03/23 01:24:26;;;;;;;13.95;9.32;;;8.30;99.90;;;;;;4139697;28;20041;-69
2021/03/23 01:26:27;;;;;;;14.15;8.77;;;8.30;99.90;;;;;;4137225;28;20033;-68
2021/03/23 01:28:27;;;;;;;10.48;7.70;;;8.20;99.90;;;;;;4111230;28;20114;-69
2021/03/23 01:30:29;;;;;;;11.18;7.85;;;8.20;99.90;;;;;;4128761;28;20138;-69
2021/03/23 01:32:29;;;;;;;16.58;7.95;;;8.30;99.90;;;;;;4144142;28;20034;-69
2021/03/23 01:34:30;;;;;;;12.15;8.23;;;8.20;99.90;;;;;;4109817;28;20494;-68
2021/03/23 01:36:31;;;;;;;12.38;8.40;;;8.30;99.90;;;;;;4135995;28;20577;-68
2021/03/23 01:38:32;;;;;;;10.63;7.75;;;8.30;99.90;;;;;;4142389;28;20713;-69
2021/03/23 01:40:34;;;;;;;10.40;7.63;;;8.30;99.90;;;;;;4138065;28;20589;-68
2021/03/23 01:42:47;;;;;;;;;;;8.30;99.90;;;;;;4132907;28;20829;-69
2021/03/23 01:45:17;;;;;;;13.30;8.00;;;8.30;99.90;;;;;;4133698;28;19918;-69
2021/03/23 01:47:18;;;;;;;10.98;7.35;;;8.30;99.90;;;;;;4142338;28;20057;-69
2021/03/23 01:49:38;;;;;;;12.20;7.93;;;8.30;99.90;;;;;;4125385;28;20031;-69
2021/03/23 01:51:41;;;;;;;10.88;7.97;;;8.30;99.90;;;;;;4137731;28;20041;-69
2021/03/23 01:53:46;;;;;;;12.80;8.20;;;8.30;99.90;;;;;;4141990;28;20058;-68
2021/03/23 01:55:46;;;;;;;11.55;7.40;;;8.30;99.90;;;;;;4130394;28;20651;-69
2021/03/23 01:57:50;;;;;;;13.13;7.45;;;8.30;99.90;;;;;;4127228;28;20041;-69
2021/03/23 01:59:54;;;;;;;9.95;7.45;;;8.30;99.90;;;;;;4133889;28;20069;-68
2021/03/23 02:01:58;;;;;;;10.50;7.75;;;8.30;99.90;;;;;;4131984;28;20109;-68
2021/03/23 02:04:00;;;;;;;11.70;6.90;;;8.30;99.90;;;;;;4131826;28;20109;-68
2021/03/23 02:06:02;;;;;;;9.65;6.72;;;8.30;99.90;;;;;;4114947;28;20110;-68
2021/03/23 02:08:05;;;;;;;10.55;7.22;;;8.30;99.90;;;;;;4134723;28;20046;-69
2021/03/23 02:10:06;;;;;;;12.43;7.45;;;8.30;99.90;;;;;;4135595;28;20586;-68
2021/03/23 02:12:21;;;;;;;10.93;7.25;;;8.30;99.90;;;;;;4115258;28;20035;-68
2021/03/23 02:14:43;;;;;;;10.85;7.53;;;8.30;99.90;;;;;;4135418;28;20462;-69
2021/03/23 02:16:45;;;;;;;13.13;7.68;;;8.30;99.90;;;;;;4120488;28;20122;-69
2021/03/23 02:18:46;;;;;;;10.95;7.28;;;8.30;99.90;;;;;;4143928;28;20045;-68
2021/03/23 02:21:16;;;;;;;12.75;7.97;;;8.30;99.90;;;;;;4142311;28;20033;-69
2021/03/23 02:23:23;;;;;;;13.73;7.70;;;8.30;99.90;;;;;;4119292;28;20074;-69
2021/03/23 02:25:25;;;;;;;12.05;7.80;;;8.30;99.90;;;;;;4133902;28;20038;-68
2021/03/23 02:27:27;;;;;;;12.05;7.35;;;8.30;99.90;;;;;;4135127;28;20041;-69
2021/03/23 02:29:28;;;;;;;12.77;8.23;;;8.30;99.90;;;;;;4119483;28;20053;-69
2021/03/23 02:31:30;;;;;;;11.65;7.95;;;8.30;99.90;;;;;;4135960;28;20041;-69
2021/03/23 02:33:31;;;;;;;;;;;8.30;99.90;;;;;;4122969;28;20049;-68
2021/03/23 02:35:32;;;;;;;14.80;8.43;;;8.30;99.90;;;;;;4134409;28;20014;-69
2021/03/23 02:37:33;;;;;;;12.30;8.32;;;8.30;99.90;;;;;;4134975;28;20058;-69
2021/03/23 02:39:34;;;;;;;15.00;8.70;;;8.30;99.90;;;;;;4135054;28;20085;-69
2021/03/23 02:41:35;;;;;;;15.32;8.93;;;8.30;99.90;;;;;;4136416;28;20045;-69
2021/03/23 02:43:36;;;;;;;13.02;8.18;;;8.30;99.90;;;;;;4133719;28;20038;-69
2021/03/23 02:45:38;;;;;;;12.65;7.70;;;8.30;99.90;;;;;;4119469;28;20542;-69
2021/03/23 02:47:38;;;;;;;12.80;7.70;;;8.30;99.90;;;;;;4135077;28;20180;-69
2021/03/23 02:49:40;;;;;;;12.27;7.85;;;8.30;99.90;;;;;;4117603;28;20034;-69
2021/03/23 02:51:41;;;;;;;13.90;8.30;;;8.40;99.90;;;;;;4114639;28;20059;-69
2021/03/23 02:53:48;;;;;;;12.25;8.23;;;8.40;99.90;;;;;;4125538;28;20109;-68
2021/03/23 02:55:49;;;;;;;14.25;8.52;;;8.40;99.90;;;;;;4115629;28;20042;-69
2021/03/23 02:57:50;;;;;;;10.68;7.53;;;8.40;99.90;;;;;;4137461;28;20048;-69
2021/03/23 02:59:53;;;;;;;12.40;7.88;;;8.40;99.90;;;;;;4126183;28;20046;-69
2021/03/23 03:01:53;;;;;;;12.32;8.38;;;8.50;99.90;;;;;;4134834;28;20510;-69
2021/03/23 03:03:54;;;;;;;11.55;8.10;;;8.50;99.90;;;;;;4122082;28;20046;-69
2021/03/23 03:05:55;;;;;;;12.10;8.27;;;8.50;99.90;;;;;;4121852;28;20101;-69
2021/03/23 03:07:57;;;;;;;13.15;7.72;;;8.50;99.90;;;;;;4138411;28;20069;-69
2021/03/23 03:09:58;;;;;;;11.73;8.07;;;8.50;99.90;;;;;;4143098;28;20089;-68
2021/03/23 03:11:59;;;;;;;11.85;8.20;;;8.50;99.90;;;;;;4122746;28;20191;-69
2021/03/23 03:14:04;;;;;;;12.75;7.72;;;8.50;99.90;;;;;;4135033;28;20030;-69
2021/03/23 03:16:05;;;;;;;13.27;8.23;;;8.50;99.90;;;;;;4115812;28;20095;-69
2021/03/23 03:18:06;;;;;;;12.02;7.70;;;8.50;99.90;;;;;;4135148;28;20355;-69
2021/03/23 03:20:08;;;;;;;13.60;8.88;;;8.50;99.90;;;;;;4112551;28;20046;-69
2021/03/23 03:22:09;;;;;;;14.02;8.57;;;8.50;99.90;;;;;;4113935;28;20705;-69
2021/03/23 03:24:10;;;;;;;13.25;8.50;;;8.40;99.90;;;;;;4112761;28;20039;-68
2021/03/23 03:26:10;;;;;;;11.80;8.23;;;8.50;99.90;;;;;;4131683;28;20046;-69
2021/03/23 03:28:11;;;;;;;14.65;8.73;;;8.50;99.90;;;;;;4134493;28;20489;-68
2021/03/23 03:30:18;;;;;;;14.65;8.82;;;8.50;99.90;;;;;;4119118;28;20795;-69
2021/03/23 03:32:18;;;;;;;13.20;8.63;;;8.50;99.90;;;;;;4135593;28;20100;-69
2021/03/23 03:34:20;;;;;;;13.70;8.75;;;8.40;99.90;;;;;;4141049;28;20429;-68
2021/03/23 03:36:23;;;;;;;13.65;8.40;;;8.50;99.90;;;;;;4136299;28;20364;-69
2021/03/23 03:38:26;;;;;;;13.15;8.65;;;8.50;99.90;;;;;;4133778;28;20037;-69
2021/03/23 03:40:33;;;;;;;14.32;9.07;;;8.50;99.90;;;;;;4125361;28;20034;-69
2021/03/23 03:42:34;;;;;;;12.85;8.68;;;8.40;99.90;;;;;;4117556;28;20054;-69
2021/03/23 03:44:35;;;;;;;15.48;9.73;;;8.40;99.90;;;;;;4141990;28;20967;-69
2021/03/23 03:46:35;;;;;;;15.02;9.32;;;8.40;99.90;;;;;;4116739;28;20045;-69
2021/03/23 03:48:36;;;;;;;16.98;10.10;;;8.40;99.90;;;;;;4137120;28;20042;-69
2021/03/23 03:50:37;;;;;;;16.88;9.68;;;8.40;99.90;;;;;;4117215;28;20471;-69
2021/03/23 03:52:38;;;;;;;18.48;10.40;;;8.40;99.90;;;;;;4134177;28;20030;-69
2021/03/23 03:54:38;;;;;;;20.85;11.20;;;8.30;99.90;;;;;;4118682;28;20034;-69
2021/03/23 03:56:39;;;;;;;18.85;11.55;;;8.30;99.90;;;;;;4133151;28;20129;-69
2021/03/23 03:58:40;;;;;;;19.25;12.15;;;8.30;99.90;;;;;;4102409;28;20034;-69
2021/03/23 04:00:41;;;;;;;23.95;14.38;;;8.20;99.90;;;;;;4140999;28;20100;-69
2021/03/23 04:02:41;;;;;;;24.20;15.30;;;8.20;99.90;;;;;;4134665;28;20026;-68
2021/03/23 04:04:44;;;;;;;20.88;13.90;;;8.20;99.90;;;;;;4135567;28;20442;-69
2021/03/23 04:06:45;;;;;;;20.90;13.57;;;8.20;99.90;;;;;;4115727;28;20027;-69
2021/03/23 04:08:45;;;;;;;21.92;14.38;;;8.20;99.90;;;;;;4136304;28;20497;-68
2021/03/23 04:10:47;;;;;;;22.13;15.27;;;8.20;99.90;;;;;;4140387;28;20030;-68
2021/03/23 04:12:49;;;;;;;23.85;14.93;;;8.10;99.90;;;;;;4100810;28;20035;-69
2021/03/23 04:14:49;;;;;;;22.90;14.82;;;8.20;99.90;;;;;;4137082;28;20092;-69
2021/03/23 04:16:50;;;;;;;18.63;13.50;;;8.20;99.90;;;;;;4139591;28;20042;-68
2021/03/23 04:18:51;;;;;;;24.95;14.95;;;8.20;99.90;;;;;;4129136;28;20045;-68
2021/03/23 04:20:54;;;;;;;25.02;15.23;;;8.20;99.90;;;;;;4142442;28;20414;-69
2021/03/23 04:22:55;;;;;;;22.33;15.35;;;8.20;99.90;;;;;;4131292;28;20030;-69
2021/03/23 04:24:56;;;;;;;23.38;14.82;;;8.10;99.90;;;;;;4120177;28;20653;-69
2021/03/23 04:26:56;;;;;;;21.48;15.18;;;8.20;99.90;;;;;;4094957;28;20038;-69
2021/03/23 04:28:57;;;;;;;23.63;15.32;;;8.10;99.90;;;;;;4121551;28;20046;-69
2021/03/23 04:30:58;;;;;;;26.45;15.80;;;8.20;99.90;;;;;;4126586;28;20395;-68
2021/03/23 04:32:59;;;;;;;23.88;15.88;;;8.10;99.90;;;;;;4122367;28;20360;-69
2021/03/23 04:35:00;;;;;;;25.58;17.08;;;8.10;99.90;;;;;;4124540;28;20109;-69
2021/03/23 04:37:01;;;;;;;26.15;17.55;;;8.10;99.90;;;;;;4122111;28;20043;-69
2021/03/23 04:39:06;;;;;;;25.50;16.85;;;8.10;99.90;;;;;;4118680;28;20041;-69
2021/03/23 04:41:09;;;;;;;27.85;17.15;;;8.10;99.90;;;;;;4110977;28;20599;-68
2021/03/23 04:43:16;;;;;;;25.30;17.40;;;8.10;99.90;;;;;;4123565;28;20116;-69
2021/03/23 04:45:18;;;;;;;23.77;16.17;;;8.00;99.90;;;;;;4125248;28;20117;-69
2021/03/23 04:47:19;;;;;;;;;;;8.00;99.90;;;;;;4121886;28;20047;-69
2021/03/23 04:49:19;;;;;;;24.38;16.83;;;8.00;99.90;;;;;;4113405;28;19948;-68
2021/03/23 04:51:22;;;;;;;30.55;18.98;;;8.00;99.90;;;;;;4120419;28;20442;-69
2021/03/23 04:53:27;;;;;;;;;;;8.00;99.90;;;;;;4122337;28;20038;-69
2021/03/23 04:55:27;;;;;;;26.42;16.77;;;8.00;99.90;;;;;;4127821;28;19913;-68
2021/03/23 04:57:28;;;;;;;30.63;19.48;;;7.90;99.90;;;;;;4126328;28;20085;-69
2021/03/23 04:59:29;;;;;;;28.48;19.15;;;8.00;99.90;;;;;;4129745;28;20562;-69
2021/03/23 05:01:30;;;;;;;28.73;19.88;;;7.90;99.90;;;;;;4144110;28;20026;-69
2021/03/23 05:03:33;;;;;;;30.38;19.40;;;7.90;99.90;;;;;;4114922;28;20031;-69
2021/03/23 05:05:34;;;;;;;29.77;19.52;;;7.90;99.90;;;;;;4127669;28;20049;-68
2021/03/23 05:07:35;;;;;;;32.13;19.90;;;7.90;99.90;;;;;;4103391;28;20058;-68
2021/03/23 05:09:35;;;;;;;30.35;19.88;;;7.90;99.90;;;;;;4144266;28;20048;-69
2021/03/23 05:11:37;;;;;;;29.70;19.45;;;7.80;99.90;;;;;;4144544;28;20437;-68
2021/03/23 05:13:37;;;;;;;31.40;20.15;;;7.80;99.90;;;;;;4123088;28;20091;-68
2021/03/23 05:15:38;;;;;;;29.27;19.75;;;7.80;99.90;;;;;;4143851;28;20033;-68
2021/03/23 05:17:39;;;;;;;30.75;20.05;;;7.80;99.90;;;;;;4145040;28;20131;-69
2021/03/23 05:19:39;;;;;;;29.45;19.48;;;7.80;99.90;;;;;;4143986;28;20042;-69
2021/03/23 05:21:40;;;;;;;29.75;20.13;;;7.80;99.90;;;;;;4141057;28;20042;-69
2021/03/23 05:23:40;;;;;;;31.17;19.85;;;7.80;99.90;;;;;;4143042;28;20050;-68
2021/03/23 05:25:42;;;;;;;30.35;20.05;;;7.80;99.90;;;;;;4134794;28;20062;-69
2021/03/23 05:27:42;;;;;;;29.52;19.10;;;7.80;99.90;;;;;;4134568;28;20036;-68
2021/03/23 05:29:43;;;;;;;35.17;21.30;;;7.80;99.90;;;;;;4144076;28;20038;-68
2021/03/23 05:31:44;;;;;;;31.90;20.00;;;7.80;99.90;;;;;;4140725;28;20544;-69
2021/03/23 05:33:45;;;;;;;35.30;20.92;;;7.80;99.90;;;;;;4143767;28;20046;-69
2021/03/23 05:35:48;;;;;;;31.05;20.45;;;7.80;99.90;;;;;;4134022;28;20035;-69
2021/03/23 05:37:49;;;;;;;29.77;19.38;;;7.80;99.90;;;;;;4139933;28;20046;-69
2021/03/23 05:39:53;;;;;;;33.28;20.75;;;7.70;99.90;;;;;;4142814;28;20044;-69
2021/03/23 05:42:04;;;;;;;27.75;19.58;;;7.80;99.90;;;;;;4144306;28;20042;-68
2021/03/23 05:44:31;;;;;;;29.70;19.80;;;7.70;99.90;;;;;;4121833;28;20045;-69
2021/03/23 05:46:35;;;;;;;28.02;18.35;;;7.70;99.90;;;;;;4128685;28;20038;-68
2021/03/23 05:48:53;;;;;;;29.50;19.75;;;7.70;99.90;;;;;;4135792;28;20041;-69
2021/03/23 05:51:15;;;;;;;31.48;19.67;;;7.70;99.90;;;;;;4140410;28;20046;-69
2021/03/23 05:53:40;;;;;;;29.15;18.90;;;7.70;99.90;;;;;;4142068;28;20034;-68
2021/03/23 05:55:47;;;;;;;31.90;19.27;;;7.70;99.90;;;;;;4139906;28;20045;-68
2021/03/23 05:57:52;;;;;;;28.70;18.58;;;7.80;99.90;;;;;;4129857;28;20035;-70
2021/03/23 06:00:14;;;;;;;29.65;18.55;;;7.70;99.90;;;;;;4143031;28;20041;-69
2021/03/23 06:02:34;;;;;;;27.13;18.63;;;7.70;99.90;;;;;;4141896;28;20095;-68
2021/03/23 06:04:54;;;;;;;33.55;20.58;;;7.70;99.90;;;;;;4140689;28;20360;-69
2021/03/23 06:07:04;;;;;;;32.00;19.17;;;7.70;99.90;;;;;;4143320;28;20038;-68
2021/03/23 06:09:05;;;;;;;30.00;19.15;;;7.70;99.90;;;;;;4140452;28;20260;-69
2021/03/23 06:11:06;;;;;;;29.77;17.98;;;7.70;99.90;;;;;;4133621;28;20030;-69
2021/03/23 06:13:32;;;;;;;28.80;18.08;;;7.70;99.90;;;;;;4135581;28;20026;-68
2021/03/23 06:16:06;;;;;;;31.73;18.42;;;7.70;99.90;;;;;;4142356;28;20026;-69
2021/03/23 06:18:12;;;;;;;30.13;19.23;;;7.70;99.90;;;;;;4122940;28;20058;-68
2021/03/23 06:20:51;;;;;;;28.48;17.33;;;7.70;99.90;;;;;;4142367;28;20030;-69
2021/03/23 06:23:00;;;;;;;25.98;16.50;;;7.70;99.90;;;;;;4124124;28;20512;-71
2021/03/23 06:25:15;;;;;;;31.00;18.08;;;7.70;99.90;;;;;;4122874;28;20034;-69
2021/03/23 06:27:27;;;;;;;29.38;18.33;;;7.80;99.90;;;;;;4140970;28;20108;-69
2021/03/23 06:29:41;;;;;;;28.55;16.13;;;7.80;99.90;;;;;;4120314;28;20108;-70
2021/03/23 06:31:58;;;;;;;29.65;18.10;;;7.80;99.90;;;;;;4141526;28;20133;-70
2021/03/23 06:33:59;;;;;;;28.13;17.58;;;7.90;99.90;;;;;;4126286;28;20376;-69
2021/03/23 06:36:04;;;;;;;24.73;16.05;;;7.90;99.90;;;;;;4141139;28;20138;-70
2021/03/23 06:38:33;;;;;;;26.80;17.23;;;7.90;99.90;;;;;;4112624;28;20057;-69
2021/03/23 06:40:36;;;;;;;30.33;17.38;;;7.90;99.90;;;;;;4135135;28;20038;-69
2021/03/23 06:42:44;;;;;;;33.47;17.67;;;7.90;99.90;;;;;;4141814;28;20037;-69
2021/03/23 06:44:44;;;;;;;29.83;17.40;;;7.90;99.90;;;;;;4127363;28;20080;-69
2021/03/23 06:46:50;;;;;;;26.00;16.85;;;7.90;99.90;;;;;;4142024;28;20030;-69
2021/03/23 06:49:14;;;;;;;31.17;18.70;;;7.90;99.90;;;;;;4141271;28;20045;-69
2021/03/23 06:51:22;;;;;;;24.80;16.48;;;7.90;99.90;;;;;;4128793;28;20074;-69
2021/03/23 06:53:22;;;;;;;26.67;16.85;;;8.00;99.90;;;;;;4140155;28;20045;-69
2021/03/23 06:55:25;;;;;;;24.67;16.55;;;8.00;99.90;;;;;;4142579;28;20041;-69
2021/03/23 06:57:26;;;;;;;25.95;16.35;;;8.00;99.90;;;;;;4140262;28;20061;-69
2021/03/23 06:59:28;;;;;;;28.85;16.27;;;8.00;99.90;;;;;;4141369;28;20036;-69
2021/03/23 07:01:37;;;;;;;29.40;17.45;;;8.00;99.90;;;;;;4141024;28;20044;-69
2021/03/23 07:03:39;;;;;;;30.15;16.55;;;8.10;99.90;;;;;;4140256;28;20045;-69
2021/03/23 07:05:42;;;;;;;28.73;16.95;;;8.00;99.90;;;;;;4142050;28;20033;-69
2021/03/23 07:07:50;;;;;;;30.45;17.77;;;8.10;99.90;;;;;;4141592;28;20048;-69
2021/03/23 07:09:55;;;;;;;26.30;15.15;;;8.00;99.90;;;;;;4122596;28;20642;-69
2021/03/23 07:12:02;;;;;;;30.83;17.83;;;8.10;99.90;;;;;;4133727;28;20061;-69
2021/03/23 07:14:32;;;;;;;28.40;16.23;;;8.10;99.90;;;;;;4121804;28;20526;-69
2021/03/23 07:16:33;;;;;;;27.52;15.80;;;8.10;99.90;;;;;;4141880;28;20390;-69
2021/03/23 07:18:40;;;;;;;32.78;18.13;;;8.10;99.90;;;;;;4125205;28;20051;-69
2021/03/23 07:20:49;;;;;;;34.05;17.55;;;8.10;99.90;;;;;;4134227;28;20052;-69
2021/03/23 07:22:52;;;;;;;28.23;16.80;;;8.10;99.90;;;;;;4131868;28;20044;-69
2021/03/23 07:24:57;;;;;;;29.02;17.40;;;8.10;99.90;;;;;;4139737;28;20153;-69
2021/03/23 07:27:15;;;;;;;29.50;17.77;;;8.10;99.90;;;;;;4136172;28;20128;-69
2021/03/23 07:29:24;;;;;;;41.33;19.02;;;8.10;99.90;;;;;;4137041;28;20037;-69
2021/03/23 07:31:32;;;;;;;36.45;18.80;;;8.10;99.90;;;;;;4127662;28;20062;-69
2021/03/23 07:34:12;;;;;;;34.78;18.38;;;8.10;99.90;;;;;;4134903;28;20045;-69
2021/03/23 07:36:25;;;;;;;29.60;17.58;;;8.20;99.90;;;;;;4133749;28;20042;-69
2021/03/23 07:38:35;;;;;;;33.63;17.92;;;8.20;99.90;;;;;;4146804;28;20029;-69
2021/03/23 07:40:46;;;;;;;33.60;18.40;;;8.20;99.90;;;;;;4138821;28;20096;-69
2021/03/23 07:43:19;;;;;;;38.00;18.92;;;8.20;99.90;;;;;;4119718;28;20046;-69
2021/03/23 07:45:29;;;;;;;29.67;16.42;;;8.20;99.90;;;;;;4116243;28;20125;-69
2021/03/23 07:47:46;;;;;;;30.08;17.75;;;8.20;99.90;;;;;;4135063;28;20038;-69
2021/03/23 07:49:57;;;;;;;36.88;19.55;;;8.30;99.90;;;;;;4139298;28;20038;-69
2021/03/23 07:52:16;;;;;;;29.73;17.88;;;8.30;99.90;;;;;;4137583;28;20615;-69
2021/03/23 07:54:37;;;;;;;30.77;16.77;;;8.40;99.90;;;;;;4134611;28;20085;-69
2021/03/23 07:57:03;;;;;;;36.53;19.60;;;8.40;99.90;;;;;;4133681;28;20026;-69
2021/03/23 07:59:28;;;;;;;31.55;17.55;;;8.50;99.90;;;;;;4124766;28;20038;-69
2021/03/23 08:01:50;;;;;;;34.15;17.63;;;8.50;99.90;;;;;;4136438;28;20037;-69
2021/03/23 08:04:10;;;;;;;36.00;18.92;;;8.60;99.90;;;;;;4139211;28;20033;-69
2021/03/23 08:06:30;;;;;;;36.92;18.75;;;8.60;99.90;;;;;;4123733;28;20368;-69
2021/03/23 08:09:03;;;;;;;34.38;17.75;;;8.60;99.90;;;;;;4137621;28;20053;-69
2021/03/23 08:11:41;;;;;;;30.52;16.98;;;8.60;99.90;;;;;;4139713;28;20050;-69
2021/03/23 08:13:49;;;;;;;32.30;16.65;;;8.70;99.90;;;;;;4120096;28;20440;-69
2021/03/23 08:16:21;;;;;;;30.33;16.45;;;8.70;99.90;;;;;;4117287;28;20041;-69
2021/03/23 08:18:52;;;;;;;28.95;16.60;;;8.80;99.90;;;;;;4136975;28;20037;-69
2021/03/23 08:21:02;;;;;;;35.25;17.55;;;8.80;99.90;;;;;;4135997;28;20041;-69
2021/03/23 08:23:30;;;;;;;36.05;16.95;;;8.80;99.90;;;;;;4142944;28;20034;-69
2021/03/23 08:25:45;;;;;;;34.70;17.55;;;8.80;99.90;;;;;;4135568;28;20141;-69
2021/03/23 08:27:51;;;;;;;30.55;16.88;;;8.90;99.90;;;;;;4135313;28;20045;-69
2021/03/23 08:30:07;;;;;;;31.08;17.20;;;8.90;99.90;;;;;;4142782;28;20038;-69
2021/03/23 08:32:07;;;;;;;30.90;18.25;;;8.90;99.90;;;;;;4130515;28;20442;-69
2021/03/23 08:34:29;;;;;;;32.95;17.02;;;9.00;99.90;;;;;;4142409;28;20124;-69
2021/03/23 08:36:56;;;;;;;29.90;16.40;;;9.00;99.90;;;;;;4111598;28;20096;-69
2021/03/23 08:39:22;;;;;;;28.30;16.27;;;9.10;99.90;;;;;;4126630;28;20034;-70
2021/03/23 08:41:38;;;;;;;32.00;17.08;;;9.20;99.90;;;;;;4126205;28;20042;-69
2021/03/23 08:43:41;;;;;;;28.25;15.80;;;9.30;99.90;;;;;;4116282;28;20047;-70
2021/03/23 08:45:48;;;;;;;26.00;14.63;;;9.40;99.90;;;;;;4129336;28;20517;-69
2021/03/23 08:47:58;;;;;;;30.67;16.35;;;9.50;99.90;;;;;;4124448;28;20054;-70
2021/03/23 08:50:23;;;;;;;35.97;17.27;;;9.50;99.90;;;;;;4127539;28;20549;-69
2021/03/23 08:52:29;;;;;;;29.40;16.23;;;9.60;99.90;;;;;;4103810;28;20132;-69
2021/03/23 08:54:58;;;;;;;29.80;15.60;;;9.70;99.90;;;;;;4142514;28;20042;-69
2021/03/23 08:56:59;;;;;;;29.35;15.65;;;9.70;99.90;;;;;;4136195;28;20042;-69
2021/03/23 08:59:00;;;;;;;28.65;15.68;;;9.80;99.90;;;;;;4126143;28;20065;-69
2021/03/23 09:01:01;;;;;;;30.75;16.48;;;9.80;99.90;;;;;;4130362;28;20069;-70
2021/03/23 09:03:43;;;;;;;34.28;16.63;;;9.90;99.90;;;;;;4143452;28;20045;-69
2021/03/23 09:05:52;;;;;;;29.92;16.95;;;10.00;99.90;;;;;;4131849;28;20394;-69
2021/03/23 09:08:17;;;;;;;26.48;15.13;;;10.20;99.90;;;;;;4116463;28;20582;-69
2021/03/23 09:11:01;;;;;;;24.27;14.30;;;10.20;99.90;;;;;;4125989;28;20650;-70
2021/03/23 09:13:02;;;;;;;32.88;16.88;;;10.30;99.90;;;;;;4129722;28;20038;-69
2021/03/23 09:15:08;;;;;;;26.52;15.85;;;10.40;99.90;;;;;;4128756;28;20023;-69
2021/03/23 09:17:17;;;;;;;31.90;16.45;;;10.50;99.90;;;;;;4139876;28;20041;-69
2021/03/23 09:19:42;;;;;;;23.75;14.40;;;10.60;99.90;;;;;;4131048;28;20053;-69
2021/03/23 09:21:52;;;;;;;25.60;13.98;;;10.70;99.90;;;;;;4125631;28;20026;-69
2021/03/23 09:23:53;;;;;;;26.13;14.32;;;10.90;99.90;;;;;;4142105;28;20154;-69
2021/03/23 09:26:31;;;;;;;26.20;14.70;;;11.00;99.90;;;;;;4140579;28;20034;-70
2021/03/23 09:28:32;;;;;;;29.67;16.00;;;11.10;99.90;;;;;;4139316;28;20041;-69
2021/03/23 09:30:34;;;;;;;29.85;16.15;;;11.20;99.90;;;;;;4141352;28;20050;-69
2021/03/23 09:33:13;;;;;;;27.02;14.98;;;11.20;99.90;;;;;;4142805;28;20038;-69
2021/03/23 09:35:22;;;;;;;27.73;15.52;;;11.20;99.90;;;;;;4140907;28;20038;-70
2021/03/23 09:37:37;;;;;;;24.73;13.85;;;11.30;99.90;;;;;;4136574;28;20096;-69
2021/03/23 09:39:40;;;;;;;24.23;13.75;;;11.30;99.90;;;;;;4143071;28;20034;-69
2021/03/23 09:41:45;;;;;;;22.02;13.07;;;11.30;99.90;;;;;;4137636;28;20581;-70
2021/03/23 09:44:07;;;;;;;20.75;13.05;;;11.40;99.90;;;;;;4132633;28;20147;-70
2021/03/23 09:46:13;;;;;;;22.52;13.65;;;11.50;99.90;;;;;;4098783;28;20046;-70
2021/03/23 09:48:14;;;;;;;22.75;12.75;;;11.60;99.90;;;;;;4119854;28;20041;-70
2021/03/23 09:50:24;;;;;;;25.27;13.50;;;11.60;99.90;;;;;;4139242;28;20429;-69
2021/03/23 09:52:30;;;;;;;24.25;13.57;;;11.70;99.90;;;;;;4141394;28;20026;-70
2021/03/23 09:54:35;;;;;;;20.00;11.85;;;11.80;99.90;;;;;;4139591;28;20039;-70
2021/03/23 09:56:37;;;;;;;22.83;12.23;;;11.90;99.90;;;;;;4120744;28;20039;-69
2021/03/23 09:58:39;;;;;;;26.30;13.20;;;12.00;99.90;;;;;;4121909;28;20070;-70
2021/03/23 10:00:40;;;;;;;19.80;11.85;;;12.10;99.90;;;;;;4138904;28;20283;-70
2021/03/23 10:02:41;;;;;;;22.48;12.05;;;12.20;99.90;;;;;;4118754;28;20066;-70
2021/03/23 10:04:41;;;;;;;21.08;11.68;;;12.30;99.90;;;;;;4118651;28;20038;-70
2021/03/23 10:06:47;;;;;;;21.92;11.90;;;12.30;99.90;;;;;;4114903;28;20026;-70
2021/03/23 10:08:52;;;;;;;23.95;12.60;;;12.30;99.90;;;;;;4118829;28;20764;-70
2021/03/23 10:10:53;;;;;;;22.58;12.30;;;12.40;99.90;;;;;;4115012;28;20097;-71
2021/03/23 10:12:55;;;;;;;21.38;12.15;;;12.40;99.90;;;;;;4120662;28;20034;-70
2021/03/23 10:14:56;;;;;;;22.35;12.15;;;12.40;99.90;;;;;;4123096;28;20047;-70
2021/03/23 10:17:13;;;;;;;17.17;10.70;;;12.50;99.90;;;;;;4121759;28;20434;-70
2021/03/23 10:19:24;;;;;;;21.25;12.32;;;12.60;99.90;;;;;;4120827;28;20084;-70
2021/03/23 10:21:28;;;;;;;20.02;12.23;;;12.70;99.90;;;;;;4121389;28;20499;-70
2021/03/23 10:23:30;;;;;;;22.73;11.77;;;12.70;99.90;;;;;;4106366;28;20450;-70
2021/03/23 10:25:31;;;;;;;25.23;12.05;;;12.80;99.90;;;;;;4117135;28;20403;-70
2021/03/23 10:27:37;;;;;;;19.58;11.52;;;12.80;99.90;;;;;;4119537;28;20045;-70
2021/03/23 10:29:38;;;;;;;20.35;11.50;;;12.90;99.90;;;;;;4131080;28;20029;-70
2021/03/23 10:31:51;;;;;;;24.30;11.48;;;12.90;99.90;;;;;;4140949;28;20054;-70
2021/03/23 10:34:22;;;;;;;18.90;11.60;;;13.00;99.90;;;;;;4140085;28;20034;-70
2021/03/23 10:36:47;;;;;;;23.67;12.38;;;13.00;99.90;;;;;;4098117;28;20042;-70
2021/03/23 10:38:48;;;;;;;20.33;11.68;;;13.10;99.90;;;;;;4137786;28;20034;-70
2021/03/23 10:40:54;;;;;;;19.95;10.88;;;13.20;99.90;;;;;;4135513;28;20373;-70
2021/03/23 10:42:55;;;;;;;20.33;11.48;;;13.20;99.90;;;;;;4133751;28;20073;-70
2021/03/23 10:45:12;;;;;;;23.88;12.25;;;13.20;99.90;;;;;;4112962;28;20398;-70
2021/03/23 10:47:31;;;;;;;20.42;12.13;;;13.30;99.90;;;;;;4138344;28;20501;-70
2021/03/23 10:49:37;;;;;;;19.75;10.55;;;13.40;99.90;;;;;;4133454;28;20054;-70
2021/03/23 10:51:42;;;;;;;18.67;11.93;;;13.40;99.90;;;;;;4136057;28;20040;-70
2021/03/23 10:54:02;;;;;;;24.40;12.10;;;13.30;99.90;;;;;;4117365;28;20027;-70
2021/03/23 10:56:19;;;;;;;23.00;12.32;;;13.40;99.90;;;;;;4143083;28;20124;-70